createdAt,value
2023-01-27T00:01:16.165Z,70.79
2023-01-27T00:03:44.509Z,70.90
2023-01-27T00:06:13.248Z,70.85
2023-01-27T00:08:41.314Z,70.89
2023-01-27T00:11:27.896Z,71.14
2023-01-27T00:13:56.336Z,71.18
2023-01-27T00:16:24.700Z,71.25
2023-01-27T00:18:52.821Z,71.31
2023-01-27T00:21:39.367Z,71.46
2023-01-27T00:24:30.639Z,71.61
2023-01-27T00:26:58.752Z,71.57
2023-01-27T00:29:39.158Z,71.55
2023-01-27T00:32:26.221Z,71.73
2023-01-27T00:34:54.269Z,71.86
2023-01-27T00:37:22.404Z,71.93
2023-01-27T00:39:50.458Z,71.94
2023-01-27T00:42:18.563Z,71.97
2023-01-27T00:45:06.789Z,72.10
2023-01-27T00:47:34.925Z,72.13
2023-01-27T00:50:03.286Z,72.12
2023-01-27T00:52:31.373Z,72.24
2023-01-27T00:54:59.662Z,72.36
2023-01-27T00:57:27.758Z,72.36
2023-01-27T00:59:56.121Z,72.36
2023-01-27T01:02:24.368Z,72.36
2023-01-27T01:04:52.916Z,72.43
2023-01-27T01:07:21.065Z,72.52
2023-01-27T01:09:49.298Z,72.62
2023-01-27T01:12:17.540Z,72.50
2023-01-27T01:14:45.652Z,72.68
2023-01-27T01:17:14.343Z,72.62
2023-01-27T01:19:42.494Z,72.76
2023-01-27T01:22:10.723Z,73.00
2023-01-27T01:24:38.755Z,73.09
2023-01-27T01:27:06.785Z,73.08
2023-01-27T01:29:35.004Z,73.19
2023-01-27T01:32:03.256Z,73.23
2023-01-27T01:34:32.715Z,73.23
2023-01-27T01:37:00.897Z,73.46
2023-01-27T01:39:29.693Z,73.30
2023-01-27T01:41:58.686Z,73.51
2023-01-27T01:44:29.629Z,73.38
2023-01-27T01:47:01.276Z,73.35
2023-01-27T01:49:39.370Z,73.53
2023-01-27T01:52:13.684Z,73.48
2023-01-27T01:54:49.946Z,73.35
2023-01-27T01:57:23.361Z,73.39
2023-01-27T02:00:01.618Z,73.55
2023-01-27T02:02:33.754Z,73.44
2023-01-27T02:05:16.706Z,73.46
2023-01-27T02:07:45.003Z,73.44
2023-01-27T02:10:13.376Z,73.28
2023-01-27T02:12:41.628Z,73.39
2023-01-27T02:15:11.057Z,73.24
2023-01-27T02:17:39.250Z,73.25
2023-01-27T02:20:29.110Z,73.44
2023-01-27T02:23:21.999Z,73.36
2023-01-27T02:25:57.675Z,73.53
2023-01-27T02:28:29.334Z,73.44
2023-01-27T02:30:57.974Z,73.37
2023-01-27T02:33:26.215Z,73.24
2023-01-27T02:36:14.642Z,73.22
2023-01-27T02:38:47.721Z,73.28
2023-01-27T02:41:49.126Z,73.38
2023-01-27T02:44:17.299Z,73.33
2023-01-27T02:46:45.407Z,73.12
2023-01-27T02:49:14.112Z,73.24
2023-01-27T02:51:42.625Z,73.20
2023-01-27T02:54:12.087Z,73.32
2023-01-27T02:56:40.363Z,73.27
2023-01-27T02:59:08.780Z,73.10
2023-01-27T03:01:39.935Z,73.26
2023-01-27T03:04:09.402Z,73.33
2023-01-27T03:06:38.508Z,73.17
2023-01-27T03:09:06.737Z,73.22
2023-01-27T03:11:53.480Z,73.14
2023-01-27T03:14:22.007Z,73.16
2023-01-27T03:17:08.817Z,73.40
2023-01-27T03:19:38.393Z,73.23
2023-01-27T03:22:06.791Z,73.17
2023-01-27T03:24:35.145Z,73.12
2023-01-27T03:27:06.337Z,73.13
2023-01-27T03:29:55.938Z,73.18
2023-01-27T03:32:30.369Z,73.23
2023-01-27T03:35:18.517Z,73.21
2023-01-27T03:38:07.428Z,73.24
2023-01-27T03:40:53.976Z,73.10
2023-01-27T03:43:41.305Z,73.31
2023-01-27T03:46:22.570Z,73.23
2023-01-27T03:48:55.263Z,73.12
2023-01-27T03:51:24.293Z,72.96
2023-01-27T03:53:53.029Z,73.01
2023-01-27T03:56:22.106Z,72.98
2023-01-27T03:58:50.751Z,73.05
2023-01-27T04:01:21.346Z,73.15
2023-01-27T04:04:09.068Z,73.11
2023-01-27T04:06:58.342Z,73.04
2023-01-27T04:09:34.989Z,73.17
2023-01-27T04:12:06.307Z,73.28
2023-01-27T04:14:42.208Z,73.10
2023-01-27T04:17:13.213Z,73.02
2023-01-27T04:19:42.079Z,73.12
2023-01-27T04:22:12.937Z,73.22
2023-01-27T04:24:41.348Z,73.12
2023-01-27T04:27:15.511Z,73.10
2023-01-27T04:29:44.122Z,73.02
2023-01-27T04:32:13.261Z,73.11
2023-01-27T04:34:42.095Z,73.22
2023-01-27T04:37:11.017Z,73.26
2023-01-27T04:39:39.131Z,73.06
2023-01-27T04:42:07.193Z,73.04
2023-01-27T04:44:35.342Z,72.95
2023-01-27T04:47:03.420Z,73.01
2023-01-27T04:49:31.522Z,73.01
2023-01-27T04:51:59.570Z,73.02
2023-01-27T04:54:27.624Z,72.94
2023-01-27T04:57:05.725Z,72.94
2023-01-27T04:59:34.132Z,72.82
2023-01-27T05:02:04.899Z,72.86
2023-01-27T05:04:33.165Z,72.77
2023-01-27T05:07:02.566Z,72.95
2023-01-27T05:09:30.815Z,72.88
2023-01-27T05:11:58.917Z,72.87
2023-01-27T05:14:27.357Z,73.00
2023-01-27T05:16:56.111Z,72.94
2023-01-27T05:19:24.388Z,72.73
2023-01-27T05:21:52.408Z,72.67
2023-01-27T05:24:20.509Z,72.83
2023-01-27T05:26:48.592Z,72.82
2023-01-27T05:29:16.607Z,72.69
2023-01-27T05:31:44.740Z,72.56
2023-01-27T05:34:12.891Z,72.57
2023-01-27T05:36:41.287Z,72.53
2023-01-27T05:39:11.681Z,72.59
2023-01-27T05:41:39.706Z,72.54
2023-01-27T05:44:11.663Z,72.57
2023-01-27T05:46:41.623Z,72.50
2023-01-27T05:56:48.691Z,72.53
2023-01-27T05:59:17.009Z,72.20
2023-01-27T06:01:45.103Z,72.00
2023-01-27T06:04:13.641Z,72.15
2023-01-27T06:06:41.904Z,72.11
2023-01-27T06:09:10.407Z,72.09
2023-01-27T06:11:38.558Z,71.97
2023-01-27T06:14:06.970Z,71.74
2023-01-27T06:16:35.063Z,71.78
2023-01-27T06:19:03.363Z,71.71
2023-01-27T06:21:31.489Z,71.57
2023-01-27T06:23:59.539Z,71.36
2023-01-27T06:26:27.838Z,71.35
2023-01-27T06:28:57.667Z,71.26
2023-01-27T06:31:27.599Z,71.21
2023-01-27T06:33:56.006Z,71.07
2023-01-27T06:36:24.443Z,71.16
2023-01-27T06:38:52.689Z,71.05
2023-01-27T06:41:20.813Z,71.15
2023-01-27T06:43:49.061Z,71.00
2023-01-27T06:46:17.421Z,70.85
2023-01-27T06:48:45.633Z,70.75
2023-01-27T06:51:14.108Z,70.94
2023-01-27T06:53:42.763Z,71.04
2023-01-27T06:56:10.918Z,70.92
2023-01-27T06:58:38.977Z,70.87
2023-01-27T07:01:07.481Z,70.88
2023-01-27T07:03:36.587Z,70.72
2023-01-27T07:06:05.309Z,70.48
2023-01-27T07:08:33.533Z,70.60
2023-01-27T07:11:05.421Z,70.51
2023-01-27T07:13:33.670Z,70.36
2023-01-27T07:16:01.860Z,70.26
2023-01-27T07:18:30.783Z,70.23
2023-01-27T07:20:58.775Z,70.22
2023-01-27T07:23:27.163Z,70.17
2023-01-27T07:25:55.534Z,70.23
2023-01-27T07:28:23.683Z,70.14
2023-01-27T07:30:51.988Z,70.16
2023-01-27T07:33:20.321Z,70.25
2023-01-27T07:35:50.077Z,70.30
2023-01-27T07:38:18.733Z,70.15
2023-01-27T07:40:47.191Z,70.00
2023-01-27T07:43:15.392Z,69.91
2023-01-27T07:45:43.925Z,69.91
2023-01-27T07:48:13.048Z,69.80
2023-01-27T07:50:44.059Z,69.93
2023-01-27T07:53:12.257Z,69.79
2023-01-27T07:55:40.302Z,69.84
2023-01-27T07:58:09.029Z,69.75
2023-01-27T08:00:37.207Z,69.85
2023-01-27T08:03:06.355Z,69.60
2023-01-27T08:05:34.944Z,69.66
2023-01-27T08:08:04.428Z,69.49
2023-01-27T08:10:32.625Z,69.52
2023-01-27T08:13:00.670Z,69.64
2023-01-27T08:15:28.740Z,69.44
2023-01-27T08:17:57.739Z,69.43
2023-01-27T08:20:27.709Z,69.51
2023-01-27T08:22:56.860Z,69.43
2023-01-27T08:25:25.311Z,69.29
2023-01-27T08:27:56.227Z,69.28
2023-01-27T08:30:25.424Z,69.11
2023-01-27T08:32:55.047Z,69.21
2023-01-27T08:35:23.141Z,69.09
2023-01-27T08:37:51.652Z,69.08
2023-01-27T08:40:19.993Z,69.12
2023-01-27T08:42:50.428Z,69.12
2023-01-27T08:45:18.463Z,69.00
2023-01-27T08:47:46.443Z,69.05
2023-01-27T08:50:15.084Z,68.85
2023-01-27T08:52:43.371Z,68.88
2023-01-27T08:55:11.614Z,68.98
2023-01-27T08:57:39.865Z,68.53
2023-01-27T09:00:09.706Z,68.71
2023-01-27T09:02:37.807Z,68.74
2023-01-27T09:05:06.946Z,68.70
2023-01-27T09:07:35.040Z,68.56
2023-01-27T09:10:14.186Z,68.43
2023-01-27T09:12:44.325Z,68.34
2023-01-27T09:15:14.575Z,68.40
2023-01-27T09:17:42.688Z,68.06
2023-01-27T09:20:11.670Z,68.11
2023-01-27T09:22:41.373Z,68.36
2023-01-27T09:25:13.909Z,68.49
2023-01-27T09:27:42.426Z,68.29
2023-01-27T09:30:13.432Z,68.27
2023-01-27T09:32:42.596Z,68.12
2023-01-27T09:35:11.255Z,68.08
2023-01-27T09:37:54.450Z,68.03
2023-01-27T09:41:03.980Z,67.98
2023-01-27T09:44:16.504Z,67.84
2023-01-27T09:47:03.623Z,67.88
2023-01-27T09:49:50.293Z,67.66
2023-01-27T09:52:47.816Z,67.61
2023-01-27T09:55:35.016Z,67.79
2023-01-27T09:58:15.364Z,67.70
2023-01-27T10:01:04.826Z,67.76
2023-01-27T10:03:45.019Z,67.68
2023-01-27T10:06:36.913Z,67.65
2023-01-27T10:09:20.175Z,67.38
2023-01-27T10:12:01.003Z,67.51
2023-01-27T10:14:50.779Z,67.42
2023-01-27T10:17:36.822Z,67.34
2023-01-27T10:20:14.120Z,67.31
2023-01-27T10:23:20.476Z,67.28
2023-01-27T10:25:53.274Z,66.96
2023-01-27T10:28:23.756Z,66.60
2023-01-27T10:31:15.265Z,66.52
2023-01-27T10:33:49.015Z,66.56
2023-01-27T10:36:22.437Z,66.62
2023-01-27T10:39:09.311Z,66.58
2023-01-27T10:42:00.804Z,66.59
2023-01-27T10:44:31.689Z,66.49
2023-01-27T10:47:22.806Z,66.34
2023-01-27T10:50:00.246Z,66.29
2023-01-27T10:52:38.955Z,66.27
2023-01-27T10:55:12.787Z,66.36
2023-01-27T10:57:56.315Z,66.25
2023-01-27T11:01:19.408Z,66.36
2023-01-27T11:03:41.947Z,66.37
2023-01-27T11:06:37.761Z,66.21
2023-01-27T11:09:31.677Z,65.96
2023-01-27T11:12:10.261Z,65.86
2023-01-27T11:14:46.579Z,65.82
2023-01-27T11:17:24.573Z,65.52
2023-01-27T11:20:01.307Z,65.43
2023-01-27T11:22:37.843Z,65.24
2023-01-27T11:25:23.291Z,65.15
2023-01-27T11:28:09.428Z,65.27
2023-01-27T11:30:50.209Z,65.34
2023-01-27T11:33:25.572Z,65.16
2023-01-27T11:35:54.741Z,64.86
2023-01-27T11:38:24.162Z,64.66
2023-01-27T11:40:54.168Z,64.91
2023-01-27T11:43:26.209Z,64.69
2023-01-27T11:46:06.908Z,64.70
2023-01-27T11:48:43.892Z,64.36
2023-01-27T11:51:24.102Z,64.34
2023-01-27T11:54:03.319Z,64.15
2023-01-27T11:56:35.900Z,64.03
2023-01-27T11:59:13.885Z,64.09
2023-01-27T12:01:55.397Z,64.06
2023-01-27T12:04:39.398Z,63.95
2023-01-27T12:07:17.351Z,63.79
2023-01-27T12:09:45.705Z,63.60
2023-01-27T12:12:13.910Z,63.50
2023-01-27T12:14:58.211Z,63.45
2023-01-27T12:17:40.252Z,63.37
2023-01-27T12:20:42.316Z,63.40
2023-01-27T12:23:32.378Z,63.28
2023-01-27T12:26:04.790Z,62.90
2023-01-27T12:28:34.946Z,62.86
2023-01-27T12:31:11.277Z,62.70
2023-01-27T12:33:46.800Z,62.51
2023-01-27T12:36:24.558Z,62.48
2023-01-27T12:38:56.281Z,62.26
2023-01-27T12:41:27.448Z,62.14
2023-01-27T12:44:09.390Z,62.30
2023-01-27T12:46:42.411Z,62.46
2023-01-27T12:49:15.094Z,62.40
2023-01-27T12:51:51.777Z,62.26
2023-01-27T12:54:26.092Z,62.38
2023-01-27T12:57:00.980Z,62.23
2023-01-27T12:59:29.195Z,62.16
2023-01-27T13:02:21.470Z,62.17
2023-01-27T13:04:56.999Z,61.80
2023-01-27T13:07:39.770Z,61.71
2023-01-27T13:10:19.958Z,61.74
2023-01-27T13:12:55.516Z,61.77
2023-01-27T13:15:25.793Z,61.71
2023-01-27T13:18:12.838Z,61.64
2023-01-27T13:20:45.848Z,61.60
2023-01-27T13:23:19.799Z,61.76
2023-01-27T13:26:09.420Z,61.53
2023-01-27T13:29:10.619Z,61.37
2023-01-27T13:31:59.463Z,61.57
2023-01-27T13:34:52.849Z,61.59
2023-01-27T13:37:37.912Z,61.66
2023-01-27T13:40:21.144Z,61.44
2023-01-27T13:43:20.190Z,61.41
2023-01-27T13:45:57.727Z,61.41
2023-01-27T13:48:45.890Z,61.28
2023-01-27T13:51:22.728Z,61.23
2023-01-27T13:54:04.338Z,61.01
2023-01-27T13:56:44.247Z,61.07
2023-01-27T13:59:37.386Z,61.13
2023-01-27T14:02:27.136Z,61.11
2023-01-27T14:05:18.209Z,60.93
2023-01-27T14:07:58.706Z,60.88
2023-01-27T14:10:49.522Z,60.88
2023-01-27T14:13:36.085Z,60.92
2023-01-27T14:16:09.769Z,61.06
2023-01-27T14:18:43.917Z,61.09
2023-01-27T14:21:41.401Z,61.06
2023-01-27T14:24:21.197Z,60.92
2023-01-27T14:27:06.829Z,60.89
2023-01-27T14:29:56.647Z,60.90
2023-01-27T14:32:34.938Z,60.67
2023-01-27T14:35:43.055Z,60.51
2023-01-27T14:38:40.082Z,60.86
2023-01-27T14:41:23.240Z,60.78
2023-01-27T14:44:17.162Z,60.81
2023-01-27T14:46:57.797Z,60.77
2023-01-27T14:49:51.608Z,60.78
2023-01-27T14:52:45.272Z,60.77
2023-01-27T14:55:45.400Z,60.75
2023-01-27T14:58:19.717Z,60.76
2023-01-27T15:00:57.193Z,60.62
2023-01-27T15:03:37.345Z,60.60
2023-01-27T15:06:39.164Z,60.65
2023-01-27T15:09:33.076Z,60.83
2023-01-27T15:12:07.544Z,60.81
2023-01-27T15:14:57.983Z,61.01
2023-01-27T15:17:47.796Z,60.91
2023-01-27T15:20:41.079Z,60.75
2023-01-27T15:23:40.598Z,60.65
2023-01-27T15:26:09.682Z,60.62
2023-01-27T15:28:41.719Z,60.73
2023-01-27T15:31:16.878Z,60.94
2023-01-27T15:34:03.793Z,60.83
2023-01-27T15:36:35.435Z,60.81
2023-01-27T15:39:10.033Z,60.74
2023-01-27T15:42:13.697Z,60.88
2023-01-27T15:44:59.975Z,60.86
2023-01-27T15:47:37.508Z,60.48
2023-01-27T15:50:18.619Z,60.61
2023-01-27T15:52:49.035Z,60.50
2023-01-27T15:55:33.067Z,60.41
2023-01-27T15:58:23.856Z,60.55
2023-01-27T16:00:55.383Z,60.53
2023-01-27T16:03:44.042Z,60.59
2023-01-27T16:06:24.469Z,60.73
2023-01-27T16:09:08.621Z,60.77
2023-01-27T16:11:43.354Z,60.55
2023-01-27T16:14:11.408Z,60.40
2023-01-27T16:16:48.332Z,60.29
2023-01-27T16:19:16.687Z,60.39
2023-01-27T16:21:58.505Z,60.45
2023-01-27T16:24:33.445Z,60.62
2023-01-27T16:27:08.700Z,60.67
2023-01-27T16:29:42.652Z,60.70
2023-01-27T16:32:22.686Z,60.56
2023-01-27T16:34:56.464Z,60.49
2023-01-27T16:37:30.615Z,60.43
2023-01-27T16:40:15.031Z,60.52
2023-01-27T16:42:57.281Z,60.61
2023-01-27T16:45:29.142Z,60.73
2023-01-27T16:48:05.415Z,60.55
2023-01-27T16:50:44.079Z,60.54
2023-01-27T16:53:21.400Z,60.49
2023-01-27T16:56:03.002Z,60.39
2023-01-27T16:58:45.633Z,60.34
2023-01-27T17:01:21.842Z,60.34
2023-01-27T17:03:53.079Z,60.41
2023-01-27T17:06:23.058Z,60.41
2023-01-27T17:08:51.352Z,60.46
2023-01-27T17:11:33.237Z,60.54
2023-01-27T17:14:03.480Z,60.64
2023-01-27T17:16:36.443Z,60.53
2023-01-27T17:19:11.829Z,60.74
2023-01-27T17:21:45.298Z,60.81
2023-01-27T17:24:19.150Z,60.84
2023-01-27T17:26:56.494Z,60.74
2023-01-27T17:29:32.391Z,60.77
2023-01-27T17:32:01.475Z,60.64
2023-01-27T17:34:30.434Z,60.70
2023-01-27T17:37:16.076Z,60.72
2023-01-27T17:39:45.881Z,60.73
2023-01-27T17:42:19.190Z,60.89
2023-01-27T17:44:48.458Z,60.94
2023-01-27T17:47:19.271Z,60.93
2023-01-27T17:49:51.242Z,60.99
2023-01-27T17:52:28.044Z,61.08
2023-01-27T17:54:56.610Z,60.89
2023-01-27T17:57:35.781Z,60.96
2023-01-27T18:00:06.693Z,60.74
2023-01-27T18:03:13.568Z,60.52
2023-01-27T18:05:45.325Z,60.70
2023-01-27T18:08:13.397Z,60.53
2023-01-27T18:10:46.374Z,60.64
2023-01-27T18:13:20.551Z,60.43
2023-01-27T18:15:58.337Z,60.43
2023-01-27T18:18:33.022Z,60.37
2023-01-27T18:21:01.253Z,60.51
2023-01-27T18:23:52.826Z,60.51
2023-01-27T18:26:24.359Z,60.38
2023-01-27T18:28:58.655Z,60.33
2023-01-27T18:31:31.286Z,60.30
2023-01-27T18:34:04.664Z,60.29
2023-01-27T18:36:36.511Z,60.31
2023-01-27T18:39:33.714Z,60.17
2023-01-27T18:42:03.311Z,60.16
2023-01-27T18:44:37.322Z,60.24
2023-01-27T18:47:25.561Z,60.14
2023-01-27T18:50:00.094Z,60.19
2023-01-27T18:52:29.482Z,60.38
2023-01-27T18:55:20.986Z,60.37
2023-01-27T18:58:00.101Z,60.20
2023-01-27T19:00:35.057Z,60.32
2023-01-27T19:03:05.488Z,60.17
2023-01-27T19:05:36.024Z,60.17
2023-01-27T19:08:04.816Z,59.99
2023-01-27T19:10:34.958Z,60.05
2023-01-27T19:13:04.572Z,59.93
2023-01-27T19:15:36.217Z,59.93
2023-01-27T19:18:14.545Z,59.94
2023-01-27T19:20:43.298Z,60.12
2023-01-27T19:23:15.270Z,60.14
2023-01-27T19:25:45.880Z,60.16
2023-01-27T19:28:36.619Z,60.25
2023-01-27T19:31:07.479Z,60.19
2023-01-27T19:33:37.445Z,59.97
2023-01-27T19:36:08.629Z,59.93
2023-01-27T19:38:36.805Z,59.81
2023-01-27T19:41:05.287Z,59.73
2023-01-27T19:43:33.571Z,59.86
2023-01-27T19:46:01.745Z,59.88
2023-01-27T19:48:30.069Z,59.85
2023-01-27T19:50:58.140Z,59.68
2023-01-27T19:53:26.319Z,59.65
2023-01-27T19:55:58.156Z,59.62
2023-01-27T19:58:28.757Z,59.57
2023-01-27T20:00:57.121Z,59.56
2023-01-27T20:03:25.589Z,59.60
2023-01-27T20:05:53.773Z,59.64
2023-01-27T20:08:23.034Z,59.53
2023-01-27T20:10:51.576Z,59.66
2023-01-27T20:13:21.158Z,59.71
2023-01-27T20:15:49.502Z,59.55
2023-01-27T20:18:19.013Z,59.22
2023-01-27T20:20:47.287Z,59.18
2023-01-27T20:23:16.008Z,59.24
2023-01-27T20:25:44.047Z,59.35
2023-01-27T20:28:12.417Z,59.32
2023-01-27T20:30:41.787Z,59.43
2023-01-27T20:33:10.167Z,59.37
2023-01-27T20:35:38.206Z,59.13
2023-01-27T20:38:06.992Z,59.17
2023-01-27T20:40:35.127Z,59.17
2023-01-27T20:43:03.223Z,59.20
2023-01-27T20:45:32.577Z,59.19
2023-01-27T20:48:01.046Z,59.22
2023-01-27T20:50:29.314Z,59.28
2023-01-27T20:52:57.517Z,59.27
2023-01-27T20:55:25.671Z,59.29
2023-01-27T20:57:53.862Z,59.28
2023-01-27T21:00:22.499Z,59.26
2023-01-27T21:02:50.999Z,59.21
2023-01-27T21:05:19.716Z,59.06
2023-01-27T21:07:47.728Z,59.22
2023-01-27T21:10:19.173Z,59.11
2023-01-27T21:12:47.274Z,59.20
2023-01-27T21:15:15.923Z,59.30
2023-01-27T21:17:44.671Z,59.32
2023-01-27T21:20:13.550Z,59.35
2023-01-27T21:22:44.587Z,59.31
2023-01-27T21:25:13.394Z,59.36
2023-01-27T21:27:43.502Z,59.23
2023-01-27T21:30:13.330Z,59.16
2023-01-27T21:32:41.400Z,59.11
2023-01-27T21:35:09.588Z,59.21
2023-01-27T21:37:38.504Z,58.95
2023-01-27T21:40:07.294Z,58.90
2023-01-27T21:42:54.522Z,59.14
2023-01-27T21:45:24.141Z,59.02
2023-01-27T21:47:52.237Z,58.87
2023-01-27T21:50:20.906Z,58.92
2023-01-27T21:52:50.738Z,58.97
2023-01-27T21:55:24.623Z,59.12
2023-01-27T21:57:55.276Z,58.97
2023-01-27T22:00:28.322Z,58.89
2023-01-27T22:02:59.181Z,58.88
2023-01-27T22:05:28.839Z,58.81
2023-01-27T22:07:57.749Z,58.92
2023-01-27T22:10:28.645Z,58.74
2023-01-27T22:13:06.142Z,58.78
2023-01-27T22:15:34.638Z,58.74
2023-01-27T22:18:03.023Z,58.66
2023-01-27T22:20:32.346Z,58.72
2023-01-27T22:23:00.629Z,58.59
2023-01-27T22:25:28.734Z,58.64
2023-01-27T22:43:37.301Z,58.42
2023-01-27T22:46:05.613Z,58.61
2023-01-27T22:48:33.743Z,58.51
2023-01-27T22:51:05.908Z,58.47
2023-01-27T22:53:34.121Z,58.42
2023-01-27T22:56:03.875Z,58.33
2023-01-27T22:58:32.655Z,58.37
2023-01-27T23:01:00.722Z,58.37
2023-01-27T23:03:28.806Z,58.44
2023-01-27T23:05:56.837Z,58.45
2023-01-27T23:08:25.003Z,58.49
2023-01-27T23:10:53.030Z,58.40
2023-01-27T23:13:21.136Z,58.46
2023-01-27T23:15:49.435Z,58.29
2023-01-27T23:18:17.464Z,58.47
2023-01-27T23:20:45.525Z,58.54
2023-01-27T23:23:15.014Z,58.57
2023-01-27T23:25:47.897Z,58.60
2023-01-27T23:28:18.259Z,58.69
2023-01-27T23:30:48.947Z,58.48
2023-01-27T23:33:18.961Z,58.51
2023-01-27T23:35:47.898Z,58.65
2023-01-27T23:38:31.438Z,58.73
2023-01-27T23:41:05.201Z,58.84
2023-01-27T23:43:33.713Z,59.00
2023-01-27T23:46:02.017Z,58.90
2023-01-27T23:48:30.599Z,58.93
2023-01-27T23:50:58.778Z,58.83
2023-01-27T23:53:27.948Z,58.87
2023-01-27T23:55:58.292Z,58.99
2023-01-27T23:58:27.597Z,58.91
